HTTB

Tabora Airport

Airport
ICAO code
HTTB
IATA Code
TBO
Summary
ICAO Region
AFI
ICAO Territory
Location

Tabora, Tabora Region

Serving
Tabora
Elevation
3868 ft
Coordinates
5° 4' 37" S , 32° 49' 56" E
KCC
Airport BS
Bird Strike
Metar
HTTB 240500Z 12010KT 9999 FEW014 16/11 Q1024 NOSIG

International airport serving Tabora, Tanzania.

Climatology

Tropical Savanna climate (Köppen climate classification Aw)

Airport map

Aerial View

SKYbrary Partners:

Safety knowledge contributed by: